createdAt,value
2022-10-23T00:00:11.638Z,62.65
2022-10-23T00:05:34.603Z,62.91
2022-10-23T00:10:41.720Z,62.71
2022-10-23T00:15:45.060Z,62.36
2022-10-23T00:20:47.925Z,61.96
2022-10-23T00:25:50.728Z,61.61
2022-10-23T00:30:53.737Z,61.67
2022-10-23T00:35:56.534Z,61.69
2022-10-23T00:40:59.438Z,61.66
2022-10-23T00:46:02.443Z,61.83
2022-10-23T00:51:05.633Z,62.18
2022-10-23T00:56:08.458Z,61.88
2022-10-23T01:01:18.459Z,62.09
2022-10-23T01:06:21.193Z,62.12
2022-10-23T01:11:34.582Z,62.63
2022-10-23T01:16:47.051Z,62.46
2022-10-23T01:21:59.739Z,62.56
2022-10-23T01:27:22.613Z,62.77
2022-10-23T01:32:44.321Z,62.68
2022-10-23T01:37:55.254Z,62.84
2022-10-23T01:43:05.755Z,62.91
2022-10-23T01:48:13.933Z,63.10
2022-10-23T01:53:19.124Z,63.02
2022-10-23T01:58:23.211Z,63.08
2022-10-23T02:03:29.232Z,63.43
2022-10-23T02:08:32.494Z,63.42
2022-10-23T02:13:48.142Z,63.34
2022-10-23T02:19:06.819Z,63.52
2022-10-23T02:24:13.509Z,63.06
2022-10-23T02:29:25.427Z,62.79
2022-10-23T02:34:28.431Z,62.65
2022-10-23T02:39:31.337Z,62.58
2022-10-23T02:44:52.773Z,62.80
2022-10-23T02:50:16.671Z,62.85
2022-10-23T02:55:37.323Z,62.86
2022-10-23T03:00:44.106Z,62.77
2022-10-23T03:05:47.091Z,62.56
2022-10-23T03:10:51.304Z,62.65
2022-10-23T03:15:54.217Z,62.81
2022-10-23T03:20:57.020Z,62.71
2022-10-23T03:26:00.042Z,62.48
2022-10-23T03:31:04.274Z,62.76
2022-10-23T03:36:07.851Z,62.40
2022-10-23T03:41:10.699Z,62.02
2022-10-23T03:46:13.706Z,61.98
2022-10-23T03:51:16.505Z,61.63
2022-10-23T03:56:19.410Z,61.98
2022-10-23T04:01:22.330Z,62.04
2022-10-23T04:06:25.240Z,61.93
2022-10-23T04:11:28.123Z,62.02
2022-10-23T04:16:31.027Z,62.11
2022-10-23T04:21:34.038Z,62.51
2022-10-23T04:26:36.937Z,62.81
2022-10-23T04:31:40.045Z,63.06
2022-10-23T04:36:42.948Z,62.94
2022-10-23T04:41:45.856Z,63.07
2022-10-23T04:46:49.069Z,62.94
2022-10-23T04:51:51.970Z,63.07
2022-10-23T04:56:54.871Z,62.97
2022-10-23T05:01:57.915Z,62.97
2022-10-23T05:07:00.785Z,63.12
2022-10-23T05:12:03.686Z,63.09
2022-10-23T05:17:16.323Z,63.58
2022-10-23T05:22:21.045Z,63.62
2022-10-23T05:27:24.153Z,63.95
2022-10-23T05:32:30.463Z,63.62
2022-10-23T05:37:33.800Z,63.69
2022-10-23T05:42:39.469Z,63.61
2022-10-23T05:47:45.918Z,63.52
2022-10-23T05:52:49.448Z,63.42
2022-10-23T05:57:52.258Z,63.40
2022-10-23T06:02:55.155Z,62.84
2022-10-23T06:07:59.695Z,62.69
2022-10-23T06:13:02.501Z,62.55
2022-10-23T06:18:05.808Z,62.31
2022-10-23T06:23:08.920Z,62.75
2022-10-23T06:28:11.721Z,62.96
2022-10-23T06:33:14.524Z,62.91
2022-10-23T06:38:17.637Z,62.82
2022-10-23T06:43:20.536Z,62.52
2022-10-23T06:48:23.279Z,62.05
2022-10-23T06:53:26.043Z,61.95
2022-10-23T06:58:29.145Z,61.78
2022-10-23T07:03:32.774Z,61.63
2022-10-23T07:08:35.753Z,62.32
2022-10-23T07:13:39.910Z,61.87
2022-10-23T07:18:43.432Z,61.26
2022-10-23T07:23:46.227Z,61.44
2022-10-23T07:28:51.691Z,60.65
2022-10-23T07:33:54.594Z,61.39
2022-10-23T07:38:57.397Z,60.34
2022-10-23T07:44:00.303Z,64.84
2022-10-23T07:49:03.106Z,64.13
2022-10-23T07:54:08.031Z,62.79
2022-10-23T07:59:13.753Z,62.52
2022-10-23T08:04:16.540Z,62.31
2022-10-23T08:09:19.327Z,62.60
2022-10-23T08:14:22.132Z,62.83
2022-10-23T08:19:25.044Z,63.10
2022-10-23T08:24:27.937Z,62.76
2022-10-23T08:29:30.739Z,63.44
2022-10-23T08:34:33.751Z,62.61
2022-10-23T08:39:36.853Z,62.29
2022-10-23T08:44:54.948Z,61.57
2022-10-23T08:50:03.657Z,62.04
2022-10-23T08:55:30.213Z,61.82
2022-10-23T09:00:34.075Z,61.30
2022-10-23T09:06:00.131Z,61.25
2022-10-23T09:11:26.134Z,61.39
2022-10-23T09:17:03.516Z,61.47
2022-10-23T09:22:06.865Z,62.12
2022-10-23T09:27:16.950Z,62.28
2022-10-23T09:32:21.377Z,62.79
2022-10-23T09:37:32.366Z,62.86
2022-10-23T09:42:35.167Z,63.06
2022-10-23T09:47:38.072Z,63.03
2022-10-23T09:52:40.975Z,62.81
2022-10-23T09:57:45.488Z,62.44
2022-10-23T10:03:19.662Z,62.60
2022-10-23T10:08:35.460Z,62.87
2022-10-23T10:14:00.178Z,62.67
2022-10-23T10:19:27.761Z,62.46
2022-10-23T10:24:48.072Z,61.81
2022-10-23T10:29:59.784Z,61.62
2022-10-23T10:35:14.777Z,61.83
2022-10-23T10:40:32.836Z,61.75
2022-10-23T10:45:39.975Z,61.98
2022-10-23T10:50:55.535Z,61.93
2022-10-23T10:56:02.176Z,62.45
2022-10-23T11:01:28.346Z,63.34
2022-10-23T11:06:37.527Z,64.00
2022-10-23T11:11:43.810Z,64.61
2022-10-23T11:16:56.240Z,65.17
2022-10-23T11:22:16.759Z,65.61
2022-10-23T11:28:03.635Z,65.29
2022-10-23T11:33:56.262Z,65.26
2022-10-23T11:39:15.959Z,65.31
2022-10-23T11:44:43.239Z,65.35
2022-10-23T11:49:46.139Z,64.81
2022-10-23T11:54:48.944Z,64.40
2022-10-23T11:59:56.657Z,63.80
2022-10-23T12:05:06.936Z,63.65
2022-10-23T12:10:46.701Z,63.24
2022-10-23T12:15:58.455Z,62.68
2022-10-23T12:21:04.804Z,62.81
2022-10-23T12:26:26.545Z,63.02
2022-10-23T12:31:53.722Z,62.84
2022-10-23T12:37:22.658Z,62.33
2022-10-23T12:42:27.991Z,61.71
2022-10-23T12:47:31.074Z,61.86
2022-10-23T12:52:39.766Z,61.47
2022-10-23T12:57:46.141Z,61.37
2022-10-23T13:03:03.941Z,61.22
2022-10-23T13:08:06.988Z,61.27
2022-10-23T13:13:13.580Z,61.08
2022-10-23T13:18:17.820Z,60.94
2022-10-23T13:23:35.055Z,64.43
2022-10-23T13:28:46.871Z,61.65
2022-10-23T13:33:53.212Z,58.31
2022-10-23T13:39:00.529Z,62.62
2022-10-23T13:44:03.465Z,65.55
2022-10-23T13:49:06.368Z,61.05
2022-10-23T13:54:15.107Z,60.03
2022-10-23T13:59:19.039Z,57.95
2022-10-23T14:04:23.895Z,63.05
2022-10-23T14:09:27.449Z,65.61
2022-10-23T14:14:30.311Z,62.89
2022-10-23T14:19:34.143Z,61.22
2022-10-23T14:24:37.244Z,60.56
2022-10-23T14:29:40.866Z,60.15
2022-10-23T14:34:46.025Z,59.82
2022-10-23T14:39:50.294Z,59.69
2022-10-23T14:44:53.377Z,59.63
2022-10-23T14:49:56.785Z,59.44
2022-10-23T14:55:01.738Z,65.00
2022-10-23T15:00:06.639Z,63.63
2022-10-23T15:05:10.206Z,62.74
2022-10-23T15:10:13.184Z,62.18
2022-10-23T15:15:17.349Z,61.40
2022-10-23T15:20:20.250Z,61.36
2022-10-23T15:25:23.158Z,61.18
2022-10-23T15:30:26.680Z,61.23
2022-10-23T15:35:29.477Z,61.20
2022-10-23T15:40:33.047Z,60.90
2022-10-23T15:45:36.409Z,60.00
2022-10-23T15:50:39.313Z,66.97
2022-10-23T15:55:42.115Z,65.14
2022-10-23T16:00:44.919Z,64.36
2022-10-23T16:05:48.229Z,63.32
2022-10-23T16:10:52.058Z,63.24
2022-10-23T16:15:55.267Z,63.13
2022-10-23T16:20:58.069Z,62.85
2022-10-23T16:26:05.693Z,62.88
2022-10-23T16:31:17.731Z,63.15
2022-10-23T16:36:23.066Z,63.20
2022-10-23T16:41:26.277Z,62.96
2022-10-23T16:46:29.280Z,62.89
2022-10-23T16:51:32.441Z,62.75
2022-10-23T16:56:36.138Z,62.44
2022-10-23T17:01:39.616Z,62.15
2022-10-23T17:06:42.948Z,61.84
2022-10-23T17:11:46.361Z,61.71
2022-10-23T17:16:52.042Z,61.84
2022-10-23T17:21:56.107Z,61.81
2022-10-23T17:26:58.964Z,61.93
2022-10-23T17:32:02.276Z,62.06
2022-10-23T17:37:05.386Z,61.96
2022-10-23T17:42:08.707Z,62.38
2022-10-23T17:47:11.470Z,62.47
2022-10-23T17:52:15.250Z,62.09
2022-10-23T17:57:18.052Z,62.35
2022-10-23T18:02:21.064Z,62.58
2022-10-23T18:07:25.883Z,62.15
2022-10-23T18:12:29.708Z,62.74
2022-10-23T18:17:32.719Z,62.53
2022-10-23T18:22:36.264Z,62.45
2022-10-23T18:27:41.703Z,62.01
2022-10-23T18:32:44.833Z,62.76
2022-10-23T18:37:48.633Z,62.82
2022-10-23T18:42:51.435Z,62.46
2022-10-23T18:47:54.237Z,62.35
2022-10-23T18:52:57.449Z,62.25
2022-10-23T18:58:00.255Z,62.16
2022-10-23T19:03:03.054Z,62.37
2022-10-23T19:08:06.211Z,62.73
2022-10-23T19:13:09.063Z,62.30
2022-10-23T19:18:11.967Z,62.62
2022-10-23T19:23:15.966Z,62.63
2022-10-23T19:28:19.313Z,62.98
2022-10-23T19:33:22.112Z,62.40
2022-10-23T19:38:24.915Z,62.91
2022-10-23T19:43:27.819Z,63.17
2022-10-23T19:48:30.721Z,64.24
2022-10-23T19:53:34.350Z,64.18
2022-10-23T19:58:38.272Z,64.94
2022-10-23T20:03:42.350Z,64.97
2022-10-23T20:08:45.411Z,64.86
2022-10-23T20:13:49.944Z,65.47
2022-10-23T20:18:53.065Z,65.79
2022-10-23T20:23:59.452Z,65.22
2022-10-23T20:29:02.250Z,65.49
2022-10-23T20:34:06.894Z,65.12
2022-10-23T20:39:13.791Z,65.29
2022-10-23T20:44:18.567Z,65.28
2022-10-23T20:49:22.314Z,65.07
2022-10-23T20:54:27.728Z,64.68
2022-10-23T20:59:30.632Z,64.20
2022-10-23T21:04:33.894Z,63.42
2022-10-23T21:09:38.089Z,62.80
2022-10-23T21:14:41.086Z,62.36
2022-10-23T21:19:43.988Z,61.51
2022-10-23T21:24:46.995Z,61.31
2022-10-23T21:29:50.041Z,61.26
2022-10-23T21:34:53.008Z,60.56
2022-10-23T21:39:55.812Z,59.73
2022-10-23T21:44:58.614Z,57.47
2022-10-23T21:50:01.413Z,60.08
2022-10-23T21:55:05.002Z,67.73
2022-10-23T22:00:08.885Z,64.87
2022-10-23T22:05:11.663Z,62.29
2022-10-23T22:10:14.708Z,61.44
2022-10-23T22:15:17.677Z,60.97
2022-10-23T22:20:20.585Z,60.89
2022-10-23T22:25:23.485Z,60.60
2022-10-23T22:30:26.394Z,60.69
2022-10-23T22:35:31.236Z,60.51
2022-10-23T22:40:38.470Z,60.37
2022-10-23T22:45:42.885Z,60.58
2022-10-23T22:50:48.552Z,61.18
2022-10-23T22:55:51.863Z,61.65
2022-10-23T23:01:07.693Z,62.24
2022-10-23T23:06:12.111Z,61.52
2022-10-23T23:11:17.181Z,62.02
2022-10-23T23:16:28.268Z,61.71
2022-10-23T23:21:31.678Z,61.09
2022-10-23T23:26:34.583Z,61.15
2022-10-23T23:31:37.494Z,61.15
2022-10-23T23:36:41.283Z,61.24
2022-10-23T23:41:44.132Z,62.54
2022-10-23T23:46:47.016Z,64.58
2022-10-23T23:51:49.932Z,66.05
2022-10-23T23:56:56.614Z,65.58
